sensor_id;sensor_type;location;lat;lon;timestamp;temperature;humidity
71188;DHT22;58893;53.130;8.158;2023-02-28T00:00:39;7.20;71.00
71188;DHT22;58893;53.130;8.158;2023-02-28T00:03:05;7.20;70.90
71188;DHT22;58893;53.130;8.158;2023-02-28T00:05:31;7.20;71.00
71188;DHT22;58893;53.130;8.158;2023-02-28T00:07:57;7.20;71.10
71188;DHT22;58893;53.130;8.158;2023-02-28T00:10:28;7.20;71.80
71188;DHT22;58893;53.130;8.158;2023-02-28T00:12:56;7.20;71.00
71188;DHT22;58893;53.130;8.158;2023-02-28T00:15:24;7.20;70.90
71188;DHT22;58893;53.130;8.158;2023-02-28T00:17:50;7.20;70.80
71188;DHT22;58893;53.130;8.158;2023-02-28T00:20:16;7.20;70.70
71188;DHT22;58893;53.130;8.158;2023-02-28T00:22:44;7.20;70.60
71188;DHT22;58893;53.130;8.158;2023-02-28T00:25:12;7.20;70.70
71188;DHT22;58893;53.130;8.158;2023-02-28T00:27:39;7.20;70.90
71188;DHT22;58893;53.130;8.158;2023-02-28T00:30:07;7.20;70.90
71188;DHT22;58893;53.130;8.158;2023-02-28T00:32:33;7.20;71.00
71188;DHT22;58893;53.130;8.158;2023-02-28T00:35:00;7.20;71.10
71188;DHT22;58893;53.130;8.158;2023-02-28T00:37:25;7.20;71.30
71188;DHT22;58893;53.130;8.158;2023-02-28T00:39:51;7.20;71.20
71188;DHT22;58893;53.130;8.158;2023-02-28T00:42:17;7.20;71.20
71188;DHT22;58893;53.130;8.158;2023-02-28T00:44:42;7.20;71.30
71188;DHT22;58893;53.130;8.158;2023-02-28T00:47:08;7.20;71.50
71188;DHT22;58893;53.130;8.158;2023-02-28T00:49:34;7.20;71.70
71188;DHT22;58893;53.130;8.158;2023-02-28T00:51:59;7.10;71.70
71188;DHT22;58893;53.130;8.158;2023-02-28T00:54:25;7.20;71.90
71188;DHT22;58893;53.130;8.158;2023-02-28T00:56:51;7.10;71.70
71188;DHT22;58893;53.130;8.158;2023-02-28T00:59:17;7.10;71.80
71188;DHT22;58893;53.130;8.158;2023-02-28T01:01:44;7.10;71.70
71188;DHT22;58893;53.130;8.158;2023-02-28T01:04:10;7.10;71.80
71188;DHT22;58893;53.130;8.158;2023-02-28T01:06:36;7.10;71.90
71188;DHT22;58893;53.130;8.158;2023-02-28T01:09:04;7.10;71.90
71188;DHT22;58893;53.130;8.158;2023-02-28T01:11:30;7.10;71.90
71188;DHT22;58893;53.130;8.158;2023-02-28T01:13:55;7.10;72.20
71188;DHT22;58893;53.130;8.158;2023-02-28T01:16:21;7.10;72.30
71188;DHT22;58893;53.130;8.158;2023-02-28T01:18:47;7.10;72.40
71188;DHT22;58893;53.130;8.158;2023-02-28T01:21:16;7.10;72.50
71188;DHT22;58893;53.130;8.158;2023-02-28T01:23:42;7.10;72.40
71188;DHT22;58893;53.130;8.158;2023-02-28T01:26:14;7.10;72.40
71188;DHT22;58893;53.130;8.158;2023-02-28T01:28:40;7.10;72.20
71188;DHT22;58893;53.130;8.158;2023-02-28T01:31:06;7.10;72.10
71188;DHT22;58893;53.130;8.158;2023-02-28T01:33:32;7.10;72.10
71188;DHT22;58893;53.130;8.158;2023-02-28T01:35:59;7.10;72.10
71188;DHT22;58893;53.130;8.158;2023-02-28T01:38:25;7.00;72.20
71188;DHT22;58893;53.130;8.158;2023-02-28T01:40:51;7.10;72.50
71188;DHT22;58893;53.130;8.158;2023-02-28T01:43:26;7.10;72.80
71188;DHT22;58893;53.130;8.158;2023-02-28T01:45:54;7.10;73.00
71188;DHT22;58893;53.130;8.158;2023-02-28T01:48:25;7.10;73.20
71188;DHT22;58893;53.130;8.158;2023-02-28T01:50:52;7.00;73.20
71188;DHT22;58893;53.130;8.158;2023-02-28T01:53:24;7.10;73.30
71188;DHT22;58893;53.130;8.158;2023-02-28T01:55:52;7.00;73.30
71188;DHT22;58893;53.130;8.158;2023-02-28T01:58:19;7.00;73.20
71188;DHT22;58893;53.130;8.158;2023-02-28T02:00:45;7.00;73.10
71188;DHT22;58893;53.130;8.158;2023-02-28T02:03:15;7.00;73.20
71188;DHT22;58893;53.130;8.158;2023-02-28T02:05:44;7.00;73.50
71188;DHT22;58893;53.130;8.158;2023-02-28T02:08:21;7.00;73.70
71188;DHT22;58893;53.130;8.158;2023-02-28T02:11:01;7.00;73.80
71188;DHT22;58893;53.130;8.158;2023-02-28T02:21:21;7.00;73.50
71188;DHT22;58893;53.130;8.158;2023-02-28T02:26:44;7.00;73.20
71188;DHT22;58893;53.130;8.158;2023-02-28T02:35:05;7.00;73.20
71188;DHT22;58893;53.130;8.158;2023-02-28T02:37:38;7.00;73.00
71188;DHT22;58893;53.130;8.158;2023-02-28T02:40:22;6.90;72.70
71188;DHT22;58893;53.130;8.158;2023-02-28T02:45:19;6.90;72.70
71188;DHT22;58893;53.130;8.158;2023-02-28T02:47:48;6.90;73.00
71188;DHT22;58893;53.130;8.158;2023-02-28T02:50:26;6.90;73.30
71188;DHT22;58893;53.130;8.158;2023-02-28T02:52:57;6.90;73.40
71188;DHT22;58893;53.130;8.158;2023-02-28T02:55:25;6.90;73.50
71188;DHT22;58893;53.130;8.158;2023-02-28T02:57:58;6.90;73.50
71188;DHT22;58893;53.130;8.158;2023-02-28T03:00:39;6.90;73.60
71188;DHT22;58893;53.130;8.158;2023-02-28T03:03:08;6.90;73.40
71188;DHT22;58893;53.130;8.158;2023-02-28T03:05:42;6.90;73.40
71188;DHT22;58893;53.130;8.158;2023-02-28T03:08:09;6.90;73.60
71188;DHT22;58893;53.130;8.158;2023-02-28T03:10:46;6.90;73.70
71188;DHT22;58893;53.130;8.158;2023-02-28T03:24:26;6.80;73.80
71188;DHT22;58893;53.130;8.158;2023-02-28T03:26:58;6.80;73.80
71188;DHT22;58893;53.130;8.158;2023-02-28T03:29:35;6.80;74.50
71188;DHT22;58893;53.130;8.158;2023-02-28T03:32:35;6.80;73.90
71188;DHT22;58893;53.130;8.158;2023-02-28T03:35:21;6.80;73.80
71188;DHT22;58893;53.130;8.158;2023-02-28T03:37:50;6.80;73.90
71188;DHT22;58893;53.130;8.158;2023-02-28T03:40:20;6.80;74.00
71188;DHT22;58893;53.130;8.158;2023-02-28T03:42:50;6.80;74.20
71188;DHT22;58893;53.130;8.158;2023-02-28T03:45:20;6.80;73.90
71188;DHT22;58893;53.130;8.158;2023-02-28T03:48:13;6.80;73.60
71188;DHT22;58893;53.130;8.158;2023-02-28T03:50:41;6.80;73.60
71188;DHT22;58893;53.130;8.158;2023-02-28T03:55:46;6.80;73.90
71188;DHT22;58893;53.130;8.158;2023-02-28T04:01:30;6.80;74.10
71188;DHT22;58893;53.130;8.158;2023-02-28T04:03:57;6.80;74.00
71188;DHT22;58893;53.130;8.158;2023-02-28T04:06:23;6.70;73.90
71188;DHT22;58893;53.130;8.158;2023-02-28T04:08:50;6.80;74.00
71188;DHT22;58893;53.130;8.158;2023-02-28T04:11:33;6.70;73.90
71188;DHT22;58893;53.130;8.158;2023-02-28T04:14:00;6.80;74.00
71188;DHT22;58893;53.130;8.158;2023-02-28T04:16:26;6.80;73.90
71188;DHT22;58893;53.130;8.158;2023-02-28T04:18:52;6.70;73.80
71188;DHT22;58893;53.130;8.158;2023-02-28T04:21:17;6.80;73.80
71188;DHT22;58893;53.130;8.158;2023-02-28T04:23:46;6.70;73.70
71188;DHT22;58893;53.130;8.158;2023-02-28T04:26:12;6.70;73.80
71188;DHT22;58893;53.130;8.158;2023-02-28T04:28:38;6.80;74.00
71188;DHT22;58893;53.130;8.158;2023-02-28T04:31:04;6.70;74.00
71188;DHT22;58893;53.130;8.158;2023-02-28T04:33:32;6.70;74.10
71188;DHT22;58893;53.130;8.158;2023-02-28T04:36:03;6.80;74.20
71188;DHT22;58893;53.130;8.158;2023-02-28T04:38:32;6.70;74.10
71188;DHT22;58893;53.130;8.158;2023-02-28T04:40:59;6.70;74.00
71188;DHT22;58893;53.130;8.158;2023-02-28T04:43:26;6.70;73.90
71188;DHT22;58893;53.130;8.158;2023-02-28T04:45:52;6.70;73.80
71188;DHT22;58893;53.130;8.158;2023-02-28T04:48:18;6.70;73.80
71188;DHT22;58893;53.130;8.158;2023-02-28T04:50:43;6.70;73.80
71188;DHT22;58893;53.130;8.158;2023-02-28T04:53:09;6.70;73.80
71188;DHT22;58893;53.130;8.158;2023-02-28T04:55:34;6.70;73.80
71188;DHT22;58893;53.130;8.158;2023-02-28T04:58:00;6.70;73.90
71188;DHT22;58893;53.130;8.158;2023-02-28T05:00:26;6.70;73.80
71188;DHT22;58893;53.130;8.158;2023-02-28T05:02:51;6.70;73.80
71188;DHT22;58893;53.130;8.158;2023-02-28T05:05:17;6.70;73.70
71188;DHT22;58893;53.130;8.158;2023-02-28T05:07:44;6.70;73.80
71188;DHT22;58893;53.130;8.158;2023-02-28T05:10:10;6.70;73.70
71188;DHT22;58893;53.130;8.158;2023-02-28T05:12:36;6.70;73.70
71188;DHT22;58893;53.130;8.158;2023-02-28T05:15:03;6.70;73.70
71188;DHT22;58893;53.130;8.158;2023-02-28T05:17:30;6.70;73.70
71188;DHT22;58893;53.130;8.158;2023-02-28T05:19:55;6.70;73.60
71188;DHT22;58893;53.130;8.158;2023-02-28T05:22:21;6.70;73.60
71188;DHT22;58893;53.130;8.158;2023-02-28T05:24:47;6.70;73.70
71188;DHT22;58893;53.130;8.158;2023-02-28T05:27:12;6.70;73.70
71188;DHT22;58893;53.130;8.158;2023-02-28T05:29:38;6.70;73.80
71188;DHT22;58893;53.130;8.158;2023-02-28T05:32:09;6.70;73.70
71188;DHT22;58893;53.130;8.158;2023-02-28T05:34:39;6.70;73.70
71188;DHT22;58893;53.130;8.158;2023-02-28T05:37:05;6.70;73.60
71188;DHT22;58893;53.130;8.158;2023-02-28T05:39:32;6.60;73.30
71188;DHT22;58893;53.130;8.158;2023-02-28T05:41:58;6.60;73.20
71188;DHT22;58893;53.130;8.158;2023-02-28T05:44:24;6.60;73.10
71188;DHT22;58893;53.130;8.158;2023-02-28T05:46:49;6.60;73.00
71188;DHT22;58893;53.130;8.158;2023-02-28T05:49:15;6.60;72.80
71188;DHT22;58893;53.130;8.158;2023-02-28T05:51:41;6.50;72.60
71188;DHT22;58893;53.130;8.158;2023-02-28T05:54:07;6.50;72.50
71188;DHT22;58893;53.130;8.158;2023-02-28T05:56:32;6.50;72.40
71188;DHT22;58893;53.130;8.158;2023-02-28T05:58:59;6.50;72.30
71188;DHT22;58893;53.130;8.158;2023-02-28T06:01:35;6.40;72.10
71188;DHT22;58893;53.130;8.158;2023-02-28T06:04:02;6.40;72.10
71188;DHT22;58893;53.130;8.158;2023-02-28T06:06:29;6.40;72.30
71188;DHT22;58893;53.130;8.158;2023-02-28T06:08:59;6.40;72.50
71188;DHT22;58893;53.130;8.158;2023-02-28T06:11:26;6.40;72.60
71188;DHT22;58893;53.130;8.158;2023-02-28T06:13:56;6.30;72.60
71188;DHT22;58893;53.130;8.158;2023-02-28T06:16:23;6.30;72.60
71188;DHT22;58893;53.130;8.158;2023-02-28T06:18:49;6.30;72.60
71188;DHT22;58893;53.130;8.158;2023-02-28T06:21:15;6.30;72.60
71188;DHT22;58893;53.130;8.158;2023-02-28T06:23:40;6.30;72.80
71188;DHT22;58893;53.130;8.158;2023-02-28T06:26:06;6.30;72.80
71188;DHT22;58893;53.130;8.158;2023-02-28T06:28:32;6.30;72.80
71188;DHT22;58893;53.130;8.158;2023-02-28T06:30:58;6.30;72.80
71188;DHT22;58893;53.130;8.158;2023-02-28T06:33:24;6.30;73.00
71188;DHT22;58893;53.130;8.158;2023-02-28T06:35:51;6.30;73.00
71188;DHT22;58893;53.130;8.158;2023-02-28T06:38:16;6.30;73.00
71188;DHT22;58893;53.130;8.158;2023-02-28T06:40:43;6.30;73.00
71188;DHT22;58893;53.130;8.158;2023-02-28T06:43:10;6.30;72.80
71188;DHT22;58893;53.130;8.158;2023-02-28T06:45:42;6.30;72.20
71188;DHT22;58893;53.130;8.158;2023-02-28T06:48:09;6.30;72.00
71188;DHT22;58893;53.130;8.158;2023-02-28T06:50:35;6.30;71.90
71188;DHT22;58893;53.130;8.158;2023-02-28T06:53:01;6.30;72.00
71188;DHT22;58893;53.130;8.158;2023-02-28T06:55:27;6.30;72.00
71188;DHT22;58893;53.130;8.158;2023-02-28T06:57:52;6.30;71.70
71188;DHT22;58893;53.130;8.158;2023-02-28T07:00:20;6.30;71.70
71188;DHT22;58893;53.130;8.158;2023-02-28T07:02:46;6.30;71.80
71188;DHT22;58893;53.130;8.158;2023-02-28T07:05:12;6.30;71.60
71188;DHT22;58893;53.130;8.158;2023-02-28T07:07:38;6.30;71.50
71188;DHT22;58893;53.130;8.158;2023-02-28T07:10:12;6.30;71.50
71188;DHT22;58893;53.130;8.158;2023-02-28T07:12:39;6.30;71.70
71188;DHT22;58893;53.130;8.158;2023-02-28T07:15:05;6.30;71.70
71188;DHT22;58893;53.130;8.158;2023-02-28T07:17:31;6.40;71.60
71188;DHT22;58893;53.130;8.158;2023-02-28T07:19:56;6.40;71.30
71188;DHT22;58893;53.130;8.158;2023-02-28T07:22:22;6.40;71.00
71188;DHT22;58893;53.130;8.158;2023-02-28T07:24:48;6.40;70.70
71188;DHT22;58893;53.130;8.158;2023-02-28T07:27:13;6.40;70.80
71188;DHT22;58893;53.130;8.158;2023-02-28T07:29:49;6.40;71.10
71188;DHT22;58893;53.130;8.158;2023-02-28T07:32:15;6.40;71.20
71188;DHT22;58893;53.130;8.158;2023-02-28T07:34:40;6.40;70.90
71188;DHT22;58893;53.130;8.158;2023-02-28T07:37:06;6.50;70.50
71188;DHT22;58893;53.130;8.158;2023-02-28T07:39:31;6.50;70.30
71188;DHT22;58893;53.130;8.158;2023-02-28T07:41:57;6.50;70.10
71188;DHT22;58893;53.130;8.158;2023-02-28T07:44:25;6.50;69.90
71188;DHT22;58893;53.130;8.158;2023-02-28T07:46:50;6.50;69.70
71188;DHT22;58893;53.130;8.158;2023-02-28T07:49:16;6.60;69.60
71188;DHT22;58893;53.130;8.158;2023-02-28T07:51:42;6.60;69.30
71188;DHT22;58893;53.130;8.158;2023-02-28T07:54:07;6.60;69.10
71188;DHT22;58893;53.130;8.158;2023-02-28T07:56:33;6.60;68.80
71188;DHT22;58893;53.130;8.158;2023-02-28T07:58:59;6.60;68.60
71188;DHT22;58893;53.130;8.158;2023-02-28T08:01:24;6.70;68.60
71188;DHT22;58893;53.130;8.158;2023-02-28T08:03:50;6.70;68.40
71188;DHT22;58893;53.130;8.158;2023-02-28T08:06:20;6.70;68.30
71188;DHT22;58893;53.130;8.158;2023-02-28T08:08:46;6.70;68.00
71188;DHT22;58893;53.130;8.158;2023-02-28T08:11:12;6.70;68.40
71188;DHT22;58893;53.130;8.158;2023-02-28T08:13:38;6.80;67.70
71188;DHT22;58893;53.130;8.158;2023-02-28T08:16:04;6.80;68.30
71188;DHT22;58893;53.130;8.158;2023-02-28T08:18:30;6.90;67.60
71188;DHT22;58893;53.130;8.158;2023-02-28T08:20:55;6.90;67.40
71188;DHT22;58893;53.130;8.158;2023-02-28T08:23:22;6.90;67.30
71188;DHT22;58893;53.130;8.158;2023-02-28T08:25:55;7.00;68.70
71188;DHT22;58893;53.130;8.158;2023-02-28T08:28:22;7.20;71.20
71188;DHT22;58893;53.130;8.158;2023-02-28T08:30:48;7.40;70.90
71188;DHT22;58893;53.130;8.158;2023-02-28T08:33:14;7.60;70.00
71188;DHT22;58893;53.130;8.158;2023-02-28T08:35:40;7.80;68.40
71188;DHT22;58893;53.130;8.158;2023-02-28T08:38:05;8.10;66.40
71188;DHT22;58893;53.130;8.158;2023-02-28T08:40:31;8.40;65.20
71188;DHT22;58893;53.130;8.158;2023-02-28T08:42:57;8.60;63.90
71188;DHT22;58893;53.130;8.158;2023-02-28T08:45:23;8.80;62.80
71188;DHT22;58893;53.130;8.158;2023-02-28T08:47:49;9.10;61.70
71188;DHT22;58893;53.130;8.158;2023-02-28T08:50:14;9.30;60.50
71188;DHT22;58893;53.130;8.158;2023-02-28T08:52:42;9.50;59.00
71188;DHT22;58893;53.130;8.158;2023-02-28T08:55:09;9.70;58.20
71188;DHT22;58893;53.130;8.158;2023-02-28T08:57:35;9.90;57.50
71188;DHT22;58893;53.130;8.158;2023-02-28T09:00:01;10.00;56.10
71188;DHT22;58893;53.130;8.158;2023-02-28T09:02:30;10.20;55.50
71188;DHT22;58893;53.130;8.158;2023-02-28T09:04:57;10.30;54.80
71188;DHT22;58893;53.130;8.158;2023-02-28T09:07:23;10.40;54.40
71188;DHT22;58893;53.130;8.158;2023-02-28T09:09:49;10.40;54.00
71188;DHT22;58893;53.130;8.158;2023-02-28T09:12:22;10.50;53.60
71188;DHT22;58893;53.130;8.158;2023-02-28T09:14:48;10.50;53.30
71188;DHT22;58893;53.130;8.158;2023-02-28T09:17:14;10.50;53.30
71188;DHT22;58893;53.130;8.158;2023-02-28T09:19:40;10.50;53.00
71188;DHT22;58893;53.130;8.158;2023-02-28T09:22:06;10.50;52.70
71188;DHT22;58893;53.130;8.158;2023-02-28T09:24:31;10.50;52.40
71188;DHT22;58893;53.130;8.158;2023-02-28T09:26:57;10.50;52.20
71188;DHT22;58893;53.130;8.158;2023-02-28T09:29:23;10.40;52.00
71188;DHT22;58893;53.130;8.158;2023-02-28T09:31:48;10.40;51.70
71188;DHT22;58893;53.130;8.158;2023-02-28T09:34:15;10.40;51.30
71188;DHT22;58893;53.130;8.158;2023-02-28T09:36:41;10.30;50.90
71188;DHT22;58893;53.130;8.158;2023-02-28T09:39:07;10.30;50.90
71188;DHT22;58893;53.130;8.158;2023-02-28T09:41:38;10.20;50.50
71188;DHT22;58893;53.130;8.158;2023-02-28T09:44:10;10.20;50.40
71188;DHT22;58893;53.130;8.158;2023-02-28T09:46:43;10.10;50.10
71188;DHT22;58893;53.130;8.158;2023-02-28T09:49:17;10.10;49.70
71188;DHT22;58893;53.130;8.158;2023-02-28T09:54:20;10.10;49.40
71188;DHT22;58893;53.130;8.158;2023-02-28T09:56:58;10.00;49.40
71188;DHT22;58893;53.130;8.158;2023-02-28T10:05:17;10.00;49.40
71188;DHT22;58893;53.130;8.158;2023-02-28T10:10:45;10.00;49.40
71188;DHT22;58893;53.130;8.158;2023-02-28T10:13:25;10.00;49.40
71188;DHT22;58893;53.130;8.158;2023-02-28T10:15:57;10.00;49.20
71188;DHT22;58893;53.130;8.158;2023-02-28T10:18:27;10.00;49.20
71188;DHT22;58893;53.130;8.158;2023-02-28T10:20:56;10.10;49.60
71188;DHT22;58893;53.130;8.158;2023-02-28T10:23:34;10.10;49.00
71188;DHT22;58893;53.130;8.158;2023-02-28T10:26:13;10.20;49.10
71188;DHT22;58893;53.130;8.158;2023-02-28T10:28:39;10.20;49.10
71188;DHT22;58893;53.130;8.158;2023-02-28T10:31:16;10.20;49.20
71188;DHT22;58893;53.130;8.158;2023-02-28T10:33:43;10.20;48.80
71188;DHT22;58893;53.130;8.158;2023-02-28T10:36:16;10.20;48.90
71188;DHT22;58893;53.130;8.158;2023-02-28T10:38:43;10.20;47.30
71188;DHT22;58893;53.130;8.158;2023-02-28T10:41:11;10.20;47.30
71188;DHT22;58893;53.130;8.158;2023-02-28T10:43:39;10.20;47.30
71188;DHT22;58893;53.130;8.158;2023-02-28T10:46:13;10.20;46.80
71188;DHT22;58893;53.130;8.158;2023-02-28T10:48:43;10.20;47.20
71188;DHT22;58893;53.130;8.158;2023-02-28T10:51:15;10.20;47.40
71188;DHT22;58893;53.130;8.158;2023-02-28T10:53:50;10.20;48.20
71188;DHT22;58893;53.130;8.158;2023-02-28T10:56:21;10.30;48.00
71188;DHT22;58893;53.130;8.158;2023-02-28T10:59:05;10.40;47.50
71188;DHT22;58893;53.130;8.158;2023-02-28T11:01:46;10.40;47.20
71188;DHT22;58893;53.130;8.158;2023-02-28T11:06:47;10.40;47.50
71188;DHT22;58893;53.130;8.158;2023-02-28T11:09:35;10.40;47.30
71188;DHT22;58893;53.130;8.158;2023-02-28T11:12:04;10.50;46.60
71188;DHT22;58893;53.130;8.158;2023-02-28T11:14:40;10.50;46.10
71188;DHT22;58893;53.130;8.158;2023-02-28T11:17:40;10.50;46.40
71188;DHT22;58893;53.130;8.158;2023-02-28T11:20:18;10.50;46.10
71188;DHT22;58893;53.130;8.158;2023-02-28T11:22:46;10.50;45.90
71188;DHT22;58893;53.130;8.158;2023-02-28T11:25:33;10.50;45.60
71188;DHT22;58893;53.130;8.158;2023-02-28T11:28:39;10.40;45.60
71188;DHT22;58893;53.130;8.158;2023-02-28T11:31:15;10.50;45.60
71188;DHT22;58893;53.130;8.158;2023-02-28T11:33:55;10.40;45.60
71188;DHT22;58893;53.130;8.158;2023-02-28T11:36:24;10.40;45.70
71188;DHT22;58893;53.130;8.158;2023-02-28T11:38:51;10.30;45.70
71188;DHT22;58893;53.130;8.158;2023-02-28T11:55:00;10.20;42.80
71188;DHT22;58893;53.130;8.158;2023-02-28T12:02:57;10.10;41.90
71188;DHT22;58893;53.130;8.158;2023-02-28T12:13:50;9.90;41.80
71188;DHT22;58893;53.130;8.158;2023-02-28T12:16:44;10.00;41.10
71188;DHT22;58893;53.130;8.158;2023-02-28T12:24:49;10.00;40.60
71188;DHT22;58893;53.130;8.158;2023-02-28T12:27:22;10.00;40.40
71188;DHT22;58893;53.130;8.158;2023-02-28T12:29:58;10.00;40.70
71188;DHT22;58893;53.130;8.158;2023-02-28T12:32:38;10.00;40.80
71188;DHT22;58893;53.130;8.158;2023-02-28T12:35:12;10.00;41.80
71188;DHT22;58893;53.130;8.158;2023-02-28T12:37:46;9.90;42.20
71188;DHT22;58893;53.130;8.158;2023-02-28T12:40:22;10.00;41.60
71188;DHT22;58893;53.130;8.158;2023-02-28T12:43:18;9.90;42.70
71188;DHT22;58893;53.130;8.158;2023-02-28T12:48:27;10.00;42.10
71188;DHT22;58893;53.130;8.158;2023-02-28T12:50:55;10.00;42.10
71188;DHT22;58893;53.130;8.158;2023-02-28T12:53:30;10.00;42.50
71188;DHT22;58893;53.130;8.158;2023-02-28T12:56:16;10.00;42.80
71188;DHT22;58893;53.130;8.158;2023-02-28T12:58:50;10.00;43.50
71188;DHT22;58893;53.130;8.158;2023-02-28T13:04:36;10.00;43.50
71188;DHT22;58893;53.130;8.158;2023-02-28T13:09:58;10.00;43.20
71188;DHT22;58893;53.130;8.158;2023-02-28T13:12:25;10.00;43.00
71188;DHT22;58893;53.130;8.158;2023-02-28T13:15:06;10.00;43.30
71188;DHT22;58893;53.130;8.158;2023-02-28T13:17:39;10.00;43.30
71188;DHT22;58893;53.130;8.158;2023-02-28T13:20:19;10.00;43.30
71188;DHT22;58893;53.130;8.158;2023-02-28T13:22:48;10.00;43.40
71188;DHT22;58893;53.130;8.158;2023-02-28T13:27:59;10.10;43.60
71188;DHT22;58893;53.130;8.158;2023-02-28T13:33:34;10.10;43.40
71188;DHT22;58893;53.130;8.158;2023-02-28T13:38:46;10.10;43.20
71188;DHT22;58893;53.130;8.158;2023-02-28T13:46:29;10.10;43.00
71188;DHT22;58893;53.130;8.158;2023-02-28T13:48:55;10.10;43.20
71188;DHT22;58893;53.130;8.158;2023-02-28T13:51:43;10.10;43.20
71188;DHT22;58893;53.130;8.158;2023-02-28T14:07:50;10.10;41.80
71188;DHT22;58893;53.130;8.158;2023-02-28T14:20:50;10.10;39.70
71188;DHT22;58893;53.130;8.158;2023-02-28T14:31:09;10.00;38.70
71188;DHT22;58893;53.130;8.158;2023-02-28T14:33:50;10.00;38.20
71188;DHT22;58893;53.130;8.158;2023-02-28T14:36:27;10.00;38.30
71188;DHT22;58893;53.130;8.158;2023-02-28T14:38:58;10.00;38.30
71188;DHT22;58893;53.130;8.158;2023-02-28T14:41:34;9.90;39.30
71188;DHT22;58893;53.130;8.158;2023-02-28T14:46:49;9.90;39.60
71188;DHT22;58893;53.130;8.158;2023-02-28T14:51:44;9.90;39.80
71188;DHT22;58893;53.130;8.158;2023-02-28T14:54:16;9.90;40.10
71188;DHT22;58893;53.130;8.158;2023-02-28T14:56:49;9.90;40.40
71188;DHT22;58893;53.130;8.158;2023-02-28T14:59:28;9.90;40.80
71188;DHT22;58893;53.130;8.158;2023-02-28T15:02:17;9.90;41.20
71188;DHT22;58893;53.130;8.158;2023-02-28T15:04:43;9.90;41.30
71188;DHT22;58893;53.130;8.158;2023-02-28T15:07:15;9.90;41.40
71188;DHT22;58893;53.130;8.158;2023-02-28T15:09:41;9.90;41.70
71188;DHT22;58893;53.130;8.158;2023-02-28T15:12:07;9.90;42.00
71188;DHT22;58893;53.130;8.158;2023-02-28T15:14:34;9.90;41.90
71188;DHT22;58893;53.130;8.158;2023-02-28T15:17:08;9.90;42.10
71188;DHT22;58893;53.130;8.158;2023-02-28T15:19:41;9.90;42.30
71188;DHT22;58893;53.130;8.158;2023-02-28T15:22:15;9.90;42.70
71188;DHT22;58893;53.130;8.158;2023-02-28T15:24:47;9.80;42.80
71188;DHT22;58893;53.130;8.158;2023-02-28T15:27:21;9.80;43.00
71188;DHT22;58893;53.130;8.158;2023-02-28T15:29:56;9.80;43.20
71188;DHT22;58893;53.130;8.158;2023-02-28T15:34:57;9.80;42.90
71188;DHT22;58893;53.130;8.158;2023-02-28T15:37:39;9.80;42.80
71188;DHT22;58893;53.130;8.158;2023-02-28T15:40:13;9.80;42.90
71188;DHT22;58893;53.130;8.158;2023-02-28T15:42:39;9.80;43.10
71188;DHT22;58893;53.130;8.158;2023-02-28T15:45:05;9.80;43.10
71188;DHT22;58893;53.130;8.158;2023-02-28T15:47:31;9.90;43.20
71188;DHT22;58893;53.130;8.158;2023-02-28T15:50:00;9.90;43.10
71188;DHT22;58893;53.130;8.158;2023-02-28T15:52:39;9.90;42.80
71188;DHT22;58893;53.130;8.158;2023-02-28T15:55:18;9.80;42.70
71188;DHT22;58893;53.130;8.158;2023-02-28T15:57:45;9.80;42.90
71188;DHT22;58893;53.130;8.158;2023-02-28T16:00:13;9.80;42.90
71188;DHT22;58893;53.130;8.158;2023-02-28T16:02:40;9.80;42.80
71188;DHT22;58893;53.130;8.158;2023-02-28T16:07:32;9.80;42.70
71188;DHT22;58893;53.130;8.158;2023-02-28T16:09:59;9.80;42.80
71188;DHT22;58893;53.130;8.158;2023-02-28T16:12:31;9.80;43.10
71188;DHT22;58893;53.130;8.158;2023-02-28T16:15:02;9.70;43.20
71188;DHT22;58893;53.130;8.158;2023-02-28T16:17:32;9.70;43.40
71188;DHT22;58893;53.130;8.158;2023-02-28T16:19:59;9.70;43.70
71188;DHT22;58893;53.130;8.158;2023-02-28T16:22:25;9.70;43.90
71188;DHT22;58893;53.130;8.158;2023-02-28T16:24:52;9.70;44.00
71188;DHT22;58893;53.130;8.158;2023-02-28T16:27:37;9.60;43.90
71188;DHT22;58893;53.130;8.158;2023-02-28T16:30:05;9.70;44.00
71188;DHT22;58893;53.130;8.158;2023-02-28T16:32:33;9.60;44.00
71188;DHT22;58893;53.130;8.158;2023-02-28T16:35:00;9.60;44.10
71188;DHT22;58893;53.130;8.158;2023-02-28T16:37:27;9.60;43.80
71188;DHT22;58893;53.130;8.158;2023-02-28T16:39:52;9.60;43.80
71188;DHT22;58893;53.130;8.158;2023-02-28T16:42:24;9.60;43.80
71188;DHT22;58893;53.130;8.158;2023-02-28T16:44:50;9.50;44.00
71188;DHT22;58893;53.130;8.158;2023-02-28T16:47:17;9.50;44.40
71188;DHT22;58893;53.130;8.158;2023-02-28T16:49:43;9.50;44.20
71188;DHT22;58893;53.130;8.158;2023-02-28T16:52:09;9.50;44.00
71188;DHT22;58893;53.130;8.158;2023-02-28T16:54:37;9.40;43.80
71188;DHT22;58893;53.130;8.158;2023-02-28T16:57:04;9.40;43.70
71188;DHT22;58893;53.130;8.158;2023-02-28T16:59:31;9.40;43.60
71188;DHT22;58893;53.130;8.158;2023-02-28T17:01:57;9.40;43.60
71188;DHT22;58893;53.130;8.158;2023-02-28T17:04:24;9.30;43.50
71188;DHT22;58893;53.130;8.158;2023-02-28T17:06:50;9.30;43.90
71188;DHT22;58893;53.130;8.158;2023-02-28T17:09:25;9.30;44.10
71188;DHT22;58893;53.130;8.158;2023-02-28T17:11:51;9.30;44.30
71188;DHT22;58893;53.130;8.158;2023-02-28T17:14:17;9.20;44.70
71188;DHT22;58893;53.130;8.158;2023-02-28T17:16:43;9.20;45.70
71188;DHT22;58893;53.130;8.158;2023-02-28T17:19:13;9.20;46.40
71188;DHT22;58893;53.130;8.158;2023-02-28T17:21:39;9.10;47.00
71188;DHT22;58893;53.130;8.158;2023-02-28T17:24:08;9.10;47.20
71188;DHT22;58893;53.130;8.158;2023-02-28T17:26:34;9.00;47.40
71188;DHT22;58893;53.130;8.158;2023-02-28T17:29:00;9.00;47.50
71188;DHT22;58893;53.130;8.158;2023-02-28T17:31:26;8.90;47.60
71188;DHT22;58893;53.130;8.158;2023-02-28T17:33:53;8.80;47.80
71188;DHT22;58893;53.130;8.158;2023-02-28T17:36:24;8.80;48.20
71188;DHT22;58893;53.130;8.158;2023-02-28T17:38:51;8.70;48.40
71188;DHT22;58893;53.130;8.158;2023-02-28T17:41:16;8.60;48.90
71188;DHT22;58893;53.130;8.158;2023-02-28T17:43:42;8.60;49.60
71188;DHT22;58893;53.130;8.158;2023-02-28T17:46:17;8.50;50.40
71188;DHT22;58893;53.130;8.158;2023-02-28T17:48:46;8.50;51.10
71188;DHT22;58893;53.130;8.158;2023-02-28T17:51:15;8.40;51.50
71188;DHT22;58893;53.130;8.158;2023-02-28T17:53:41;8.40;51.80
71188;DHT22;58893;53.130;8.158;2023-02-28T17:56:18;8.30;52.10
71188;DHT22;58893;53.130;8.158;2023-02-28T17:58:44;8.20;52.30
71188;DHT22;58893;53.130;8.158;2023-02-28T18:01:10;8.20;52.30
71188;DHT22;58893;53.130;8.158;2023-02-28T18:03:37;8.10;52.30
71188;DHT22;58893;53.130;8.158;2023-02-28T18:06:04;8.10;52.20
71188;DHT22;58893;53.130;8.158;2023-02-28T18:08:31;8.00;52.50
71188;DHT22;58893;53.130;8.158;2023-02-28T18:10:58;8.00;52.90
71188;DHT22;58893;53.130;8.158;2023-02-28T18:13:24;7.90;53.20
71188;DHT22;58893;53.130;8.158;2023-02-28T18:15:50;7.90;53.50
71188;DHT22;58893;53.130;8.158;2023-02-28T18:18:15;7.80;53.60
71188;DHT22;58893;53.130;8.158;2023-02-28T18:20:41;7.80;53.80
71188;DHT22;58893;53.130;8.158;2023-02-28T18:23:07;7.80;53.70